Time;durP1;ratioP1;P1;durP2;ratioP2;P2;SDS_P1;SDS_P2;PMS_P1;PMS_P2;Temp;Humidity;BMP_temperature;BMP_pressure;BME280_temperature;BME280_humidity;BME280_pressure;Samples;Min_cycle;Max_cycle;Signal;HPM_P1;HPM_P2
2021/08/10 00:00:14;;;;;;;4.85;4.05;;;;;;;14.24;79.5127;95550.38;;;;
2021/08/10 00:01:16;;;;;;;4.85;4.05;;;;;;;14.24;79.5127;95550.38;;;;
2021/08/10 00:02:16;;;;;;;4.85;4.05;;;;;;;14.24;79.5127;95550.38;;;;
2021/08/10 00:03:17;;;;;;;4.4;4;;;;;;;14.03;80.15332;95563.79;;;;
2021/08/10 00:04:17;;;;;;;4.4;4;;;;;;;14.03;80.15332;95563.79;;;;
2021/08/10 00:05:18;;;;;;;4.4;4;;;;;;;14.03;80.15332;95563.79;;;;
2021/08/10 00:06:18;;;;;;;4.4;4;;;;;;;14.03;80.15332;95563.79;;;;
2021/08/10 00:07:19;;;;;;;4.4;4;;;;;;;14.03;80.15332;95563.79;;;;
2021/08/10 00:08:21;;;;;;;4.4;4;;;;;;;14.03;80.15332;95563.79;;;;
2021/08/10 00:09:21;;;;;;;4.4;4;;;;;;;14.03;80.15332;95563.79;;;;
2021/08/10 00:10:22;;;;;;;4.4;4;;;;;;;14.03;80.15332;95563.79;;;;
2021/08/10 00:11:23;;;;;;;4.4;4;;;;;;;14.03;80.15332;95563.79;;;;
2021/08/10 00:12:23;;;;;;;4.4;4;;;;;;;14.03;80.15332;95563.79;;;;
2021/08/10 00:13:24;;;;;;;4.4;4;;;;;;;14.03;80.15332;95563.79;;;;
2021/08/10 00:14:25;;;;;;;5.55;4.25;;;;;;;13.97;80.7334;95554.89;;;;
2021/08/10 00:15:25;;;;;;;5.55;4.25;;;;;;;13.97;80.7334;95554.89;;;;
2021/08/10 00:16:27;;;;;;;5.55;4.25;;;;;;;13.97;80.7334;95554.89;;;;
2021/08/10 00:17:27;;;;;;;5.55;4.25;;;;;;;13.97;80.7334;95554.89;;;;
2021/08/10 00:18:28;;;;;;;5.55;4.25;;;;;;;13.97;80.7334;95554.89;;;;
2021/08/10 00:19:29;;;;;;;5.55;4.25;;;;;;;13.97;80.7334;95554.89;;;;
2021/08/10 00:20:29;;;;;;;5.55;4.25;;;;;;;13.97;80.7334;95554.89;;;;
2021/08/10 00:21:30;;;;;;;5.55;4.25;;;;;;;13.97;80.7334;95554.89;;;;
2021/08/10 00:22:30;;;;;;;5.55;4.25;;;;;;;13.97;80.7334;95554.89;;;;
2021/08/10 00:23:31;;;;;;;5.55;4.25;;;;;;;13.97;80.7334;95554.89;;;;
2021/08/10 00:24:31;;;;;;;6.95;4.1;;;;;;;13.9;81.18457;95552.37;;;;
2021/08/10 00:25:32;;;;;;;6.95;4.1;;;;;;;13.9;81.18457;95552.37;;;;
2021/08/10 00:26:34;;;;;;;6.95;4.1;;;;;;;13.9;81.18457;95552.37;;;;
2021/08/10 00:27:35;;;;;;;6.95;4.1;;;;;;;13.9;81.18457;95552.37;;;;
2021/08/10 00:28:35;;;;;;;6.95;4.1;;;;;;;13.9;81.18457;95552.37;;;;
2021/08/10 00:29:36;;;;;;;6.95;4.1;;;;;;;13.9;81.18457;95552.37;;;;
2021/08/10 00:30:39;;;;;;;6.95;4.1;;;;;;;13.9;81.18457;95552.37;;;;
2021/08/10 00:31:40;;;;;;;6.95;4.1;;;;;;;13.9;81.18457;95552.37;;;;
2021/08/10 00:32:40;;;;;;;6.95;4.1;;;;;;;13.9;81.18457;95552.37;;;;
2021/08/10 00:33:41;;;;;;;6.95;4.1;;;;;;;13.9;81.18457;95552.37;;;;
2021/08/10 00:34:41;;;;;;;6.95;4.1;;;;;;;13.9;81.18457;95552.37;;;;
2021/08/10 00:35:42;;;;;;;5.05;4.199999;;;;;;;13.85;81.66016;95546.04;;;;
2021/08/10 00:36:43;;;;;;;5.05;4.199999;;;;;;;13.85;81.66016;95546.04;;;;
2021/08/10 00:37:43;;;;;;;5.05;4.199999;;;;;;;13.85;81.66016;95546.04;;;;
2021/08/10 00:38:44;;;;;;;5.05;4.199999;;;;;;;13.85;81.66016;95546.04;;;;
2021/08/10 00:39:44;;;;;;;5.05;4.199999;;;;;;;13.85;81.66016;95546.04;;;;
2021/08/10 00:40:45;;;;;;;5.05;4.199999;;;;;;;13.85;81.66016;95546.04;;;;
2021/08/10 00:41:46;;;;;;;5.05;4.199999;;;;;;;13.85;81.66016;95546.04;;;;
2021/08/10 00:42:46;;;;;;;5.05;4.199999;;;;;;;13.85;81.66016;95546.04;;;;
2021/08/10 00:43:47;;;;;;;5.05;4.199999;;;;;;;13.85;81.66016;95546.04;;;;
2021/08/10 00:44:48;;;;;;;5.05;4.199999;;;;;;;13.85;81.66016;95546.04;;;;
2021/08/10 00:45:49;;;;;;;4.85;4.4;;;;;;;13.78;82.1084;95541.33;;;;
2021/08/10 00:46:49;;;;;;;4.85;4.4;;;;;;;13.78;82.1084;95541.33;;;;
2021/08/10 00:47:50;;;;;;;4.85;4.4;;;;;;;13.78;82.1084;95541.33;;;;
2021/08/10 00:48:50;;;;;;;4.85;4.4;;;;;;;13.78;82.1084;95541.33;;;;
2021/08/10 00:49:51;;;;;;;4.85;4.4;;;;;;;13.78;82.1084;95541.33;;;;
2021/08/10 00:50:52;;;;;;;4.85;4.4;;;;;;;13.78;82.1084;95541.33;;;;
2021/08/10 00:51:52;;;;;;;4.85;4.4;;;;;;;13.78;82.1084;95541.33;;;;
2021/08/10 00:52:53;;;;;;;4.85;4.4;;;;;;;13.78;82.1084;95541.33;;;;
2021/08/10 00:53:54;;;;;;;4.85;4.4;;;;;;;13.78;82.1084;95541.33;;;;
2021/08/10 00:54:55;;;;;;;4.85;4.4;;;;;;;13.78;82.1084;95541.33;;;;
2021/08/10 00:55:56;;;;;;;4.85;4.4;;;;;;;13.78;82.1084;95541.33;;;;
2021/08/10 00:56:56;;;;;;;5.95;4.7;;;;;;;13.68;82.50879;95539.81;;;;
2021/08/10 00:57:58;;;;;;;5.95;4.7;;;;;;;13.68;82.50879;95539.81;;;;
2021/08/10 00:58:58;;;;;;;5.95;4.7;;;;;;;13.68;82.50879;95539.81;;;;
2021/08/10 01:00:00;;;;;;;5.95;4.7;;;;;;;13.68;82.50879;95539.81;;;;
2021/08/10 01:01:01;;;;;;;5.95;4.7;;;;;;;13.68;82.50879;95539.81;;;;
2021/08/10 01:02:01;;;;;;;5.95;4.7;;;;;;;13.68;82.50879;95539.81;;;;
2021/08/10 01:03:04;;;;;;;5.95;4.7;;;;;;;13.68;82.50879;95539.81;;;;
2021/08/10 01:04:05;;;;;;;5.95;4.7;;;;;;;13.68;82.50879;95539.81;;;;
2021/08/10 01:05:05;;;;;;;5.95;4.7;;;;;;;13.68;82.50879;95539.81;;;;
2021/08/10 01:06:07;;;;;;;5.95;4.7;;;;;;;13.68;82.50879;95539.81;;;;
2021/08/10 01:07:20;;;;;;;4.8;4.35;;;;;;;13.5;83.11035;95542.25;;;;
2021/08/10 01:08:31;;;;;;;4.8;4.35;;;;;;;13.5;83.11035;95542.25;;;;
2021/08/10 01:09:45;;;;;;;4.8;4.35;;;;;;;13.5;83.11035;95542.25;;;;
2021/08/10 01:10:52;;;;;;;4.8;4.35;;;;;;;13.5;83.11035;95542.25;;;;
2021/08/10 01:12:00;;;;;;;4.8;4.35;;;;;;;13.5;83.11035;95542.25;;;;
2021/08/10 01:13:06;;;;;;;4.8;4.35;;;;;;;13.5;83.11035;95542.25;;;;
2021/08/10 01:14:15;;;;;;;4.8;4.35;;;;;;;13.5;83.11035;95542.25;;;;
2021/08/10 01:15:21;;;;;;;4.8;4.35;;;;;;;13.5;83.11035;95542.25;;;;
2021/08/10 01:16:26;;;;;;;4.8;4.35;;;;;;;13.5;83.11035;95542.25;;;;
2021/08/10 01:17:33;;;;;;;4.8;4.35;;;;;;;13.5;83.11035;95542.25;;;;
2021/08/10 01:18:40;;;;;;;6.95;4.65;;;;;;;13.35;83.75879;95536.58;;;;
2021/08/10 01:19:51;;;;;;;6.95;4.65;;;;;;;13.35;83.75879;95536.58;;;;
2021/08/10 01:21:44;;;;;;;6.95;4.65;;;;;;;13.35;83.75879;95536.58;;;;
2021/08/10 01:22:51;;;;;;;6.95;4.65;;;;;;;13.35;83.75879;95536.58;;;;
2021/08/10 01:23:55;;;;;;;6.95;4.65;;;;;;;13.35;83.75879;95536.58;;;;
2021/08/10 01:25:01;;;;;;;6.95;4.65;;;;;;;13.35;83.75879;95536.58;;;;
2021/08/10 01:26:12;;;;;;;6.95;4.65;;;;;;;13.35;83.75879;95536.58;;;;
2021/08/10 01:27:25;;;;;;;6.95;4.65;;;;;;;13.35;83.75879;95536.58;;;;
2021/08/10 01:28:50;;;;;;;4.95;4.45;;;;;;;13.25;84.44531;95538.31;;;;
2021/08/10 01:29:58;;;;;;;4.95;4.45;;;;;;;13.25;84.44531;95538.31;;;;
2021/08/10 01:31:04;;;;;;;4.95;4.45;;;;;;;13.25;84.44531;95538.31;;;;
2021/08/10 01:32:24;;;;;;;4.95;4.45;;;;;;;13.25;84.44531;95538.31;;;;
2021/08/10 01:33:27;;;;;;;4.95;4.45;;;;;;;13.25;84.44531;95538.31;;;;
2021/08/10 01:34:29;;;;;;;4.95;4.45;;;;;;;13.25;84.44531;95538.31;;;;
2021/08/10 01:35:35;;;;;;;4.95;4.45;;;;;;;13.25;84.44531;95538.31;;;;
2021/08/10 01:36:36;;;;;;;4.95;4.45;;;;;;;13.25;84.44531;95538.31;;;;
2021/08/10 01:37:39;;;;;;;4.95;4.45;;;;;;;13.25;84.44531;95538.31;;;;
2021/08/10 01:38:42;;;;;;;4.95;4.45;;;;;;;13.25;84.44531;95538.31;;;;
2021/08/10 01:39:46;;;;;;;5.7;4.6;;;;;;;13.14;84.9082;95538.26;;;;
2021/08/10 01:40:51;;;;;;;5.7;4.6;;;;;;;13.14;84.9082;95538.26;;;;
2021/08/10 01:41:52;;;;;;;5.7;4.6;;;;;;;13.14;84.9082;95538.26;;;;
2021/08/10 01:42:53;;;;;;;5.7;4.6;;;;;;;13.14;84.9082;95538.26;;;;
2021/08/10 01:43:56;;;;;;;5.7;4.6;;;;;;;13.14;84.9082;95538.26;;;;
2021/08/10 01:45:00;;;;;;;5.7;4.6;;;;;;;13.14;84.9082;95538.26;;;;
2021/08/10 01:46:01;;;;;;;5.7;4.6;;;;;;;13.14;84.9082;95538.26;;;;
2021/08/10 01:47:03;;;;;;;5.7;4.6;;;;;;;13.14;84.9082;95538.26;;;;
2021/08/10 01:48:04;;;;;;;5.7;4.6;;;;;;;13.14;84.9082;95538.26;;;;
2021/08/10 01:49:07;;;;;;;5.7;4.6;;;;;;;13.14;84.9082;95538.26;;;;
2021/08/10 01:50:10;;;;;;;5.85;4.95;;;;;;;13.11;85.19336;95529.69;;;;
2021/08/10 01:51:12;;;;;;;5.85;4.95;;;;;;;13.11;85.19336;95529.69;;;;
2021/08/10 01:52:13;;;;;;;5.85;4.95;;;;;;;13.11;85.19336;95529.69;;;;
2021/08/10 01:53:17;;;;;;;5.85;4.95;;;;;;;13.11;85.19336;95529.69;;;;
2021/08/10 01:54:18;;;;;;;5.85;4.95;;;;;;;13.11;85.19336;95529.69;;;;
2021/08/10 01:55:20;;;;;;;5.85;4.95;;;;;;;13.11;85.19336;95529.69;;;;
2021/08/10 01:56:21;;;;;;;5.85;4.95;;;;;;;13.11;85.19336;95529.69;;;;
2021/08/10 01:57:22;;;;;;;5.85;4.95;;;;;;;13.11;85.19336;95529.69;;;;
2021/08/10 01:58:24;;;;;;;5.85;4.95;;;;;;;13.11;85.19336;95529.69;;;;
2021/08/10 01:59:26;;;;;;;5.85;4.95;;;;;;;13.11;85.19336;95529.69;;;;
2021/08/10 02:00:27;;;;;;;5.85;4.95;;;;;;;13.11;85.19336;95529.69;;;;
2021/08/10 02:01:29;;;;;;;5.25;4.5;;;;;;;13.05;85.35352;95518.87;;;;
2021/08/10 02:02:30;;;;;;;5.25;4.5;;;;;;;13.05;85.35352;95518.87;;;;
2021/08/10 02:03:32;;;;;;;5.25;4.5;;;;;;;13.05;85.35352;95518.87;;;;
2021/08/10 02:04:34;;;;;;;5.25;4.5;;;;;;;13.05;85.35352;95518.87;;;;
2021/08/10 02:05:35;;;;;;;5.25;4.5;;;;;;;13.05;85.35352;95518.87;;;;
2021/08/10 02:06:37;;;;;;;5.25;4.5;;;;;;;13.05;85.35352;95518.87;;;;
2021/08/10 02:07:39;;;;;;;5.25;4.5;;;;;;;13.05;85.35352;95518.87;;;;
2021/08/10 02:08:39;;;;;;;5.25;4.5;;;;;;;13.05;85.35352;95518.87;;;;
2021/08/10 02:09:41;;;;;;;5.25;4.5;;;;;;;13.05;85.35352;95518.87;;;;
2021/08/10 02:10:42;;;;;;;5.25;4.5;;;;;;;13.05;85.35352;95518.87;;;;
2021/08/10 02:11:45;;;;;;;8.8;5.600001;;;;;;;12.9;85.76367;95515.85;;;;
2021/08/10 02:12:46;;;;;;;8.8;5.600001;;;;;;;12.9;85.76367;95515.85;;;;
2021/08/10 02:13:47;;;;;;;8.8;5.600001;;;;;;;12.9;85.76367;95515.85;;;;
2021/08/10 02:14:50;;;;;;;8.8;5.600001;;;;;;;12.9;85.76367;95515.85;;;;
2021/08/10 02:15:51;;;;;;;8.8;5.600001;;;;;;;12.9;85.76367;95515.85;;;;
2021/08/10 02:16:53;;;;;;;8.8;5.600001;;;;;;;12.9;85.76367;95515.85;;;;
2021/08/10 02:17:57;;;;;;;8.8;5.600001;;;;;;;12.9;85.76367;95515.85;;;;
2021/08/10 02:18:57;;;;;;;8.8;5.600001;;;;;;;12.9;85.76367;95515.85;;;;
2021/08/10 02:19:58;;;;;;;8.8;5.600001;;;;;;;12.9;85.76367;95515.85;;;;
2021/08/10 02:20:58;;;;;;;8.8;5.600001;;;;;;;12.9;85.76367;95515.85;;;;
2021/08/10 02:22:02;;;;;;;7.5;5.4;;;;;;;12.76;86.29395;95518.59;;;;
2021/08/10 02:23:05;;;;;;;7.5;5.4;;;;;;;12.76;86.29395;95518.59;;;;
2021/08/10 02:24:07;;;;;;;7.5;5.4;;;;;;;12.76;86.29395;95518.59;;;;
2021/08/10 02:25:10;;;;;;;7.5;5.4;;;;;;;12.76;86.29395;95518.59;;;;
2021/08/10 02:26:12;;;;;;;7.5;5.4;;;;;;;12.76;86.29395;95518.59;;;;
2021/08/10 02:27:15;;;;;;;7.5;5.4;;;;;;;12.76;86.29395;95518.59;;;;
2021/08/10 02:28:20;;;;;;;7.5;5.4;;;;;;;12.76;86.29395;95518.59;;;;
2021/08/10 02:29:21;;;;;;;7.5;5.4;;;;;;;12.76;86.29395;95518.59;;;;
2021/08/10 02:30:25;;;;;;;7.5;5.4;;;;;;;12.76;86.29395;95518.59;;;;
2021/08/10 02:31:30;;;;;;;7.5;5.4;;;;;;;12.76;86.29395;95518.59;;;;
2021/08/10 02:32:33;;;;;;;6.6;5.25;;;;;;;12.63;86.73926;95510.33;;;;
2021/08/10 02:33:34;;;;;;;6.6;5.25;;;;;;;12.63;86.73926;95510.33;;;;
2021/08/10 02:34:36;;;;;;;6.6;5.25;;;;;;;12.63;86.73926;95510.33;;;;
2021/08/10 02:35:40;;;;;;;6.6;5.25;;;;;;;12.63;86.73926;95510.33;;;;
2021/08/10 02:36:41;;;;;;;6.6;5.25;;;;;;;12.63;86.73926;95510.33;;;;
2021/08/10 02:37:43;;;;;;;6.6;5.25;;;;;;;12.63;86.73926;95510.33;;;;
2021/08/10 02:38:45;;;;;;;6.6;5.25;;;;;;;12.63;86.73926;95510.33;;;;
2021/08/10 02:39:47;;;;;;;6.6;5.25;;;;;;;12.63;86.73926;95510.33;;;;
2021/08/10 02:40:52;;;;;;;6.6;5.25;;;;;;;12.63;86.73926;95510.33;;;;
2021/08/10 02:41:55;;;;;;;6.6;5.25;;;;;;;12.63;86.73926;95510.33;;;;
2021/08/10 02:42:57;;;;;;;6.6;5.25;;;;;;;12.63;86.73926;95510.33;;;;
2021/08/10 02:44:00;;;;;;;7.15;5.45;;;;;;;12.51;87.13477;95500.92;;;;
2021/08/10 02:45:01;;;;;;;7.15;5.45;;;;;;;12.51;87.13477;95500.92;;;;
2021/08/10 02:46:03;;;;;;;7.15;5.45;;;;;;;12.51;87.13477;95500.92;;;;
2021/08/10 02:47:03;;;;;;;7.15;5.45;;;;;;;12.51;87.13477;95500.92;;;;
2021/08/10 02:48:04;;;;;;;7.15;5.45;;;;;;;12.51;87.13477;95500.92;;;;
2021/08/10 02:49:05;;;;;;;7.15;5.45;;;;;;;12.51;87.13477;95500.92;;;;
2021/08/10 02:50:08;;;;;;;7.15;5.45;;;;;;;12.51;87.13477;95500.92;;;;
2021/08/10 02:51:09;;;;;;;7.15;5.45;;;;;;;12.51;87.13477;95500.92;;;;
2021/08/10 02:52:09;;;;;;;7.15;5.45;;;;;;;12.51;87.13477;95500.92;;;;
2021/08/10 02:53:11;;;;;;;7.15;5.45;;;;;;;12.51;87.13477;95500.92;;;;
2021/08/10 02:54:12;;;;;;;7.75;5.25;;;;;;;12.39;87.50586;95496.1;;;;
2021/08/10 02:55:13;;;;;;;7.75;5.25;;;;;;;12.39;87.50586;95496.1;;;;
2021/08/10 02:56:14;;;;;;;7.75;5.25;;;;;;;12.39;87.50586;95496.1;;;;
2021/08/10 02:57:19;;;;;;;7.75;5.25;;;;;;;12.39;87.50586;95496.1;;;;
2021/08/10 02:58:24;;;;;;;7.75;5.25;;;;;;;12.39;87.50586;95496.1;;;;
2021/08/10 02:59:29;;;;;;;7.75;5.25;;;;;;;12.39;87.50586;95496.1;;;;
2021/08/10 03:00:34;;;;;;;7.75;5.25;;;;;;;12.39;87.50586;95496.1;;;;
2021/08/10 03:01:40;;;;;;;7.75;5.25;;;;;;;12.39;87.50586;95496.1;;;;
2021/08/10 03:02:45;;;;;;;7.75;5.25;;;;;;;12.39;87.50586;95496.1;;;;
2021/08/10 03:03:49;;;;;;;7.75;5.25;;;;;;;12.39;87.50586;95496.1;;;;
2021/08/10 03:04:51;;;;;;;10.45;6.100001;;;;;;;12.31;87.91699;95493.77;;;;
2021/08/10 03:05:56;;;;;;;10.45;6.100001;;;;;;;12.31;87.91699;95493.77;;;;
2021/08/10 03:07:00;;;;;;;10.45;6.100001;;;;;;;12.31;87.91699;95493.77;;;;
2021/08/10 03:08:00;;;;;;;10.45;6.100001;;;;;;;12.31;87.91699;95493.77;;;;
2021/08/10 03:09:02;;;;;;;10.45;6.100001;;;;;;;12.31;87.91699;95493.77;;;;
2021/08/10 03:10:03;;;;;;;10.45;6.100001;;;;;;;12.31;87.91699;95493.77;;;;
2021/08/10 03:11:05;;;;;;;10.45;6.100001;;;;;;;12.31;87.91699;95493.77;;;;
2021/08/10 03:12:07;;;;;;;10.45;6.100001;;;;;;;12.31;87.91699;95493.77;;;;
2021/08/10 03:13:09;;;;;;;10.45;6.100001;;;;;;;12.31;87.91699;95493.77;;;;
2021/08/10 03:14:11;;;;;;;10.45;6.100001;;;;;;;12.31;87.91699;95493.77;;;;
2021/08/10 03:15:12;;;;;;;9.450002;6.150001;;;;;;;12.23;88.38379;95495.9;;;;
2021/08/10 03:16:15;;;;;;;9.450002;6.150001;;;;;;;12.23;88.38379;95495.9;;;;
2021/08/10 03:17:16;;;;;;;9.450002;6.150001;;;;;;;12.23;88.38379;95495.9;;;;
2021/08/10 03:18:19;;;;;;;9.450002;6.150001;;;;;;;12.23;88.38379;95495.9;;;;
2021/08/10 03:19:24;;;;;;;9.450002;6.150001;;;;;;;12.23;88.38379;95495.9;;;;
2021/08/10 03:20:27;;;;;;;9.450002;6.150001;;;;;;;12.23;88.38379;95495.9;;;;
2021/08/10 03:21:29;;;;;;;9.450002;6.150001;;;;;;;12.23;88.38379;95495.9;;;;
2021/08/10 03:22:31;;;;;;;9.450002;6.150001;;;;;;;12.23;88.38379;95495.9;;;;
2021/08/10 03:23:34;;;;;;;9.450002;6.150001;;;;;;;12.23;88.38379;95495.9;;;;
2021/08/10 03:24:38;;;;;;;9.450002;6.150001;;;;;;;12.23;88.38379;95495.9;;;;
2021/08/10 03:25:41;;;;;;;9.450002;6.150001;;;;;;;12.23;88.38379;95495.9;;;;
2021/08/10 03:26:43;;;;;;;8.65;6;;;;;;;12.14;88.68555;95502.89;;;;
2021/08/10 03:27:46;;;;;;;8.65;6;;;;;;;12.14;88.68555;95502.89;;;;
2021/08/10 03:28:47;;;;;;;8.65;6;;;;;;;12.14;88.68555;95502.89;;;;
2021/08/10 03:29:50;;;;;;;8.65;6;;;;;;;12.14;88.68555;95502.89;;;;
2021/08/10 03:30:52;;;;;;;8.65;6;;;;;;;12.14;88.68555;95502.89;;;;
2021/08/10 03:31:54;;;;;;;8.65;6;;;;;;;12.14;88.68555;95502.89;;;;
2021/08/10 03:32:55;;;;;;;8.65;6;;;;;;;12.14;88.68555;95502.89;;;;
2021/08/10 03:33:56;;;;;;;8.65;6;;;;;;;12.14;88.68555;95502.89;;;;
2021/08/10 03:34:58;;;;;;;8.65;6;;;;;;;12.14;88.68555;95502.89;;;;
2021/08/10 03:35:59;;;;;;;8.65;6;;;;;;;12.14;88.68555;95502.89;;;;
2021/08/10 03:37:01;;;;;;;6.300001;5.699999;;;;;;;12.05;88.97852;95504.19;;;;
2021/08/10 03:38:02;;;;;;;6.300001;5.699999;;;;;;;12.05;88.97852;95504.19;;;;
2021/08/10 03:39:04;;;;;;;6.300001;5.699999;;;;;;;12.05;88.97852;95504.19;;;;
2021/08/10 03:40:05;;;;;;;6.300001;5.699999;;;;;;;12.05;88.97852;95504.19;;;;
2021/08/10 03:41:07;;;;;;;6.300001;5.699999;;;;;;;12.05;88.97852;95504.19;;;;
2021/08/10 03:42:09;;;;;;;6.300001;5.699999;;;;;;;12.05;88.97852;95504.19;;;;
2021/08/10 03:43:10;;;;;;;6.300001;5.699999;;;;;;;12.05;88.97852;95504.19;;;;
2021/08/10 03:44:11;;;;;;;6.300001;5.699999;;;;;;;12.05;88.97852;95504.19;;;;
2021/08/10 03:45:13;;;;;;;6.300001;5.699999;;;;;;;12.05;88.97852;95504.19;;;;
2021/08/10 03:46:14;;;;;;;6.300001;5.699999;;;;;;;12.05;88.97852;95504.19;;;;
2021/08/10 03:47:15;;;;;;;6.8;5.65;;;;;;;11.99;89.33887;95499.76;;;;
2021/08/10 03:48:16;;;;;;;6.8;5.65;;;;;;;11.99;89.33887;95499.76;;;;
2021/08/10 03:49:17;;;;;;;6.8;5.65;;;;;;;11.99;89.33887;95499.76;;;;
2021/08/10 03:50:22;;;;;;;6.8;5.65;;;;;;;11.99;89.33887;95499.76;;;;
2021/08/10 03:51:24;;;;;;;6.8;5.65;;;;;;;11.99;89.33887;95499.76;;;;
2021/08/10 03:52:26;;;;;;;6.8;5.65;;;;;;;11.99;89.33887;95499.76;;;;
2021/08/10 03:53:27;;;;;;;6.8;5.65;;;;;;;11.99;89.33887;95499.76;;;;
2021/08/10 03:54:28;;;;;;;6.8;5.65;;;;;;;11.99;89.33887;95499.76;;;;
2021/08/10 03:55:29;;;;;;;6.8;5.65;;;;;;;11.99;89.33887;95499.76;;;;
2021/08/10 03:56:30;;;;;;;6.8;5.65;;;;;;;11.99;89.33887;95499.76;;;;
2021/08/10 03:57:33;;;;;;;6.8;5.65;;;;;;;11.99;89.33887;95499.76;;;;
2021/08/10 03:58:35;;;;;;;6.3;5.699998;;;;;;;11.93;89.60547;95492.17;;;;
2021/08/10 03:59:36;;;;;;;6.3;5.699998;;;;;;;11.93;89.60547;95492.17;;;;
2021/08/10 04:00:37;;;;;;;6.3;5.699998;;;;;;;11.93;89.60547;95492.17;;;;
2021/08/10 04:01:39;;;;;;;6.3;5.699998;;;;;;;11.93;89.60547;95492.17;;;;
2021/08/10 04:02:40;;;;;;;6.3;5.699998;;;;;;;11.93;89.60547;95492.17;;;;
2021/08/10 04:03:42;;;;;;;6.3;5.699998;;;;;;;11.93;89.60547;95492.17;;;;
2021/08/10 04:04:44;;;;;;;6.3;5.699998;;;;;;;11.93;89.60547;95492.17;;;;
2021/08/10 04:05:45;;;;;;;6.3;5.699998;;;;;;;11.93;89.60547;95492.17;;;;
2021/08/10 04:06:47;;;;;;;6.3;5.699998;;;;;;;11.93;89.60547;95492.17;;;;
2021/08/10 04:07:47;;;;;;;6.3;5.699998;;;;;;;11.93;89.60547;95492.17;;;;
2021/08/10 04:08:49;;;;;;;6.65;5.349999;;;;;;;11.91;89.94336;95495.64;;;;
2021/08/10 04:09:50;;;;;;;6.65;5.349999;;;;;;;11.91;89.94336;95495.64;;;;
2021/08/10 04:10:51;;;;;;;6.65;5.349999;;;;;;;11.91;89.94336;95495.64;;;;
2021/08/10 04:11:52;;;;;;;6.65;5.349999;;;;;;;11.91;89.94336;95495.64;;;;
2021/08/10 04:12:53;;;;;;;6.65;5.349999;;;;;;;11.91;89.94336;95495.64;;;;
2021/08/10 04:13:54;;;;;;;6.65;5.349999;;;;;;;11.91;89.94336;95495.64;;;;
2021/08/10 04:14:54;;;;;;;6.65;5.349999;;;;;;;11.91;89.94336;95495.64;;;;
2021/08/10 04:15:55;;;;;;;6.65;5.349999;;;;;;;11.91;89.94336;95495.64;;;;
2021/08/10 04:16:56;;;;;;;6.65;5.349999;;;;;;;11.91;89.94336;95495.64;;;;
2021/08/10 04:18:02;;;;;;;6.65;5.349999;;;;;;;11.91;89.94336;95495.64;;;;
2021/08/10 04:19:03;;;;;;;6.65;5.349999;;;;;;;11.91;89.94336;95495.64;;;;
2021/08/10 04:20:03;;;;;;;8.5;5.550001;;;;;;;11.92;90.28711;95485.13;;;;
2021/08/10 04:21:05;;;;;;;8.5;5.550001;;;;;;;11.92;90.28711;95485.13;;;;
2021/08/10 04:22:06;;;;;;;8.5;5.550001;;;;;;;11.92;90.28711;95485.13;;;;
2021/08/10 04:23:06;;;;;;;8.5;5.550001;;;;;;;11.92;90.28711;95485.13;;;;
2021/08/10 04:24:07;;;;;;;8.5;5.550001;;;;;;;11.92;90.28711;95485.13;;;;
2021/08/10 04:25:07;;;;;;;8.5;5.550001;;;;;;;11.92;90.28711;95485.13;;;;
2021/08/10 04:26:08;;;;;;;8.5;5.550001;;;;;;;11.92;90.28711;95485.13;;;;
2021/08/10 04:27:09;;;;;;;8.5;5.550001;;;;;;;11.92;90.28711;95485.13;;;;
2021/08/10 04:28:10;;;;;;;8.5;5.550001;;;;;;;11.92;90.28711;95485.13;;;;
2021/08/10 04:29:13;;;;;;;8.5;5.550001;;;;;;;11.92;90.28711;95485.13;;;;
2021/08/10 04:30:13;;;;;;;6.7;5.750001;;;;;;;11.99;90.68555;95479.46;;;;
2021/08/10 04:31:14;;;;;;;6.7;5.750001;;;;;;;11.99;90.68555;95479.46;;;;
2021/08/10 04:32:15;;;;;;;6.7;5.750001;;;;;;;11.99;90.68555;95479.46;;;;
2021/08/10 04:33:16;;;;;;;6.7;5.750001;;;;;;;11.99;90.68555;95479.46;;;;
2021/08/10 04:34:16;;;;;;;6.7;5.750001;;;;;;;11.99;90.68555;95479.46;;;;
2021/08/10 04:35:17;;;;;;;6.7;5.750001;;;;;;;11.99;90.68555;95479.46;;;;
2021/08/10 04:36:17;;;;;;;6.7;5.750001;;;;;;;11.99;90.68555;95479.46;;;;
2021/08/10 04:37:18;;;;;;;6.7;5.750001;;;;;;;11.99;90.68555;95479.46;;;;
2021/08/10 04:38:19;;;;;;;6.7;5.750001;;;;;;;11.99;90.68555;95479.46;;;;
2021/08/10 04:39:19;;;;;;;6.7;5.750001;;;;;;;11.99;90.68555;95479.46;;;;
2021/08/10 04:40:20;;;;;;;6.7;5.750001;;;;;;;11.99;90.68555;95479.46;;;;
2021/08/10 04:41:20;;;;;;;6.700001;5.299999;;;;;;;12.16;91.03027;95486.3;;;;
2021/08/10 04:42:21;;;;;;;6.700001;5.299999;;;;;;;12.16;91.03027;95486.3;;;;
2021/08/10 04:43:21;;;;;;;6.700001;5.299999;;;;;;;12.16;91.03027;95486.3;;;;
2021/08/10 04:44:22;;;;;;;6.700001;5.299999;;;;;;;12.16;91.03027;95486.3;;;;
2021/08/10 04:45:22;;;;;;;6.700001;5.299999;;;;;;;12.16;91.03027;95486.3;;;;
2021/08/10 04:46:23;;;;;;;6.700001;5.299999;;;;;;;12.16;91.03027;95486.3;;;;
2021/08/10 04:47:26;;;;;;;6.700001;5.299999;;;;;;;12.16;91.03027;95486.3;;;;
2021/08/10 04:48:26;;;;;;;6.700001;5.299999;;;;;;;12.16;91.03027;95486.3;;;;
2021/08/10 04:49:27;;;;;;;6.700001;5.299999;;;;;;;12.16;91.03027;95486.3;;;;
2021/08/10 04:50:27;;;;;;;6.700001;5.299999;;;;;;;12.16;91.03027;95486.3;;;;
2021/08/10 04:51:28;;;;;;;6.000001;5.450001;;;;;;;12.37;91.33203;95477.92;;;;
2021/08/10 04:52:28;;;;;;;6.000001;5.450001;;;;;;;12.37;91.33203;95477.92;;;;
2021/08/10 04:53:29;;;;;;;6.000001;5.450001;;;;;;;12.37;91.33203;95477.92;;;;
2021/08/10 04:54:29;;;;;;;6.000001;5.450001;;;;;;;12.37;91.33203;95477.92;;;;
2021/08/10 04:55:30;;;;;;;6.000001;5.450001;;;;;;;12.37;91.33203;95477.92;;;;
2021/08/10 04:56:30;;;;;;;6.000001;5.450001;;;;;;;12.37;91.33203;95477.92;;;;
2021/08/10 04:57:31;;;;;;;6.000001;5.450001;;;;;;;12.37;91.33203;95477.92;;;;
2021/08/10 04:58:31;;;;;;;6.000001;5.450001;;;;;;;12.37;91.33203;95477.92;;;;
2021/08/10 04:59:32;;;;;;;6.000001;5.450001;;;;;;;12.37;91.33203;95477.92;;;;
2021/08/10 05:00:33;;;;;;;6.000001;5.450001;;;;;;;12.37;91.33203;95477.92;;;;
2021/08/10 05:01:33;;;;;;;6.000001;5.450001;;;;;;;12.37;91.33203;95477.92;;;;
2021/08/10 05:02:33;;;;;;;6.100001;5.500001;;;;;;;12.64;91.55762;95472.72;;;;
2021/08/10 05:03:36;;;;;;;6.100001;5.500001;;;;;;;12.64;91.55762;95472.72;;;;
2021/08/10 05:04:36;;;;;;;6.100001;5.500001;;;;;;;12.64;91.55762;95472.72;;;;
2021/08/10 05:05:36;;;;;;;6.100001;5.500001;;;;;;;12.64;91.55762;95472.72;;;;
2021/08/10 05:06:37;;;;;;;6.100001;5.500001;;;;;;;12.64;91.55762;95472.72;;;;
2021/08/10 05:07:38;;;;;;;6.100001;5.500001;;;;;;;12.64;91.55762;95472.72;;;;
2021/08/10 05:08:38;;;;;;;6.100001;5.500001;;;;;;;12.64;91.55762;95472.72;;;;
2021/08/10 05:09:40;;;;;;;6.100001;5.500001;;;;;;;12.64;91.55762;95472.72;;;;
2021/08/10 05:10:41;;;;;;;6.100001;5.500001;;;;;;;12.64;91.55762;95472.72;;;;
2021/08/10 05:11:42;;;;;;;6.100001;5.500001;;;;;;;12.64;91.55762;95472.72;;;;
2021/08/10 05:12:42;;;;;;;7.1;5.35;;;;;;;12.91;91.73047;95467.9;;;;
2021/08/10 05:13:43;;;;;;;7.1;5.35;;;;;;;12.91;91.73047;95467.9;;;;
2021/08/10 05:14:43;;;;;;;7.1;5.35;;;;;;;12.91;91.73047;95467.9;;;;
2021/08/10 05:15:44;;;;;;;7.1;5.35;;;;;;;12.91;91.73047;95467.9;;;;
2021/08/10 05:16:44;;;;;;;7.1;5.35;;;;;;;12.91;91.73047;95467.9;;;;
2021/08/10 05:17:45;;;;;;;7.1;5.35;;;;;;;12.91;91.73047;95467.9;;;;
2021/08/10 05:18:48;;;;;;;7.1;5.35;;;;;;;12.91;91.73047;95467.9;;;;
2021/08/10 05:19:48;;;;;;;7.1;5.35;;;;;;;12.91;91.73047;95467.9;;;;
2021/08/10 05:20:49;;;;;;;7.1;5.35;;;;;;;12.91;91.73047;95467.9;;;;
2021/08/10 05:21:49;;;;;;;7.1;5.35;;;;;;;12.91;91.73047;95467.9;;;;
2021/08/10 05:22:50;;;;;;;7.1;5.35;;;;;;;12.91;91.73047;95467.9;;;;
2021/08/10 05:23:50;;;;;;;6.449999;5.15;;;;;;;13.24;91.91895;95466.6;;;;
2021/08/10 05:24:51;;;;;;;6.449999;5.15;;;;;;;13.24;91.91895;95466.6;;;;
2021/08/10 05:25:52;;;;;;;6.449999;5.15;;;;;;;13.24;91.91895;95466.6;;;;
2021/08/10 05:26:52;;;;;;;6.449999;5.15;;;;;;;13.24;91.91895;95466.6;;;;
2021/08/10 05:27:53;;;;;;;6.449999;5.15;;;;;;;13.24;91.91895;95466.6;;;;
2021/08/10 05:28:53;;;;;;;6.449999;5.15;;;;;;;13.24;91.91895;95466.6;;;;
2021/08/10 05:29:54;;;;;;;6.449999;5.15;;;;;;;13.24;91.91895;95466.6;;;;
2021/08/10 05:30:54;;;;;;;6.449999;5.15;;;;;;;13.24;91.91895;95466.6;;;;
2021/08/10 05:31:55;;;;;;;6.449999;5.15;;;;;;;13.24;91.91895;95466.6;;;;
2021/08/10 05:32:56;;;;;;;6.449999;5.15;;;;;;;13.24;91.91895;95466.6;;;;
2021/08/10 05:33:56;;;;;;;5.45;4.95;;;;;;;13.63;91.91504;95473.12;;;;
2021/08/10 05:34:57;;;;;;;5.45;4.95;;;;;;;13.63;91.91504;95473.12;;;;
2021/08/10 05:35:57;;;;;;;5.45;4.95;;;;;;;13.63;91.91504;95473.12;;;;
2021/08/10 05:36:58;;;;;;;5.45;4.95;;;;;;;13.63;91.91504;95473.12;;;;
2021/08/10 05:37:58;;;;;;;5.45;4.95;;;;;;;13.63;91.91504;95473.12;;;;
2021/08/10 05:38:59;;;;;;;5.45;4.95;;;;;;;13.63;91.91504;95473.12;;;;
2021/08/10 05:40:01;;;;;;;5.45;4.95;;;;;;;13.63;91.91504;95473.12;;;;
2021/08/10 05:41:02;;;;;;;5.45;4.95;;;;;;;13.63;91.91504;95473.12;;;;
2021/08/10 05:42:03;;;;;;;5.45;4.95;;;;;;;13.63;91.91504;95473.12;;;;
2021/08/10 05:43:04;;;;;;;5.45;4.95;;;;;;;13.63;91.91504;95473.12;;;;
2021/08/10 05:44:04;;;;;;;5.45;4.95;;;;;;;13.63;91.91504;95473.12;;;;
2021/08/10 05:45:05;;;;;;;5.2;4.699999;;;;;;;14.16;91.85156;95486.99;;;;